Time;durP1;ratioP1;P1;durP2;ratioP2;P2;SDS_P1;SDS_P2;PMS_P1;PMS_P2;Temp;Humidity;BMP_temperature;BMP_pressure;BME280_temperature;BME280_humidity;BME280_pressure;Samples;Min_cycle;Max_cycle;Signal;HPM_P1;HPM_P2
2022/11/09 00:00:04;;;;;;;6.55;1.80;;;12.30;99.90;;;;;;4990892;28;20570;-85
2022/11/09 00:02:30;;;;;;;6.93;2.00;;;12.20;99.90;;;;;;5008555;28;20050;-85
2022/11/09 00:04:56;;;;;;;7.35;2.13;;;12.20;99.90;;;;;;4973713;28;20096;-85
2022/11/09 00:07:22;;;;;;;7.53;2.22;;;12.20;99.90;;;;;;4976052;28;20045;-85
2022/11/09 00:09:47;;;;;;;7.55;2.40;;;12.20;99.90;;;;;;4975038;28;20044;-85
2022/11/09 00:12:13;;;;;;;7.50;2.60;;;12.20;99.90;;;;;;5009198;28;20112;-85
2022/11/09 00:14:39;;;;;;;10.88;2.63;;;12.20;99.90;;;;;;4974872;28;20121;-85
2022/11/09 00:17:04;;;;;;;9.63;2.60;;;12.20;99.90;;;;;;5002026;28;20042;-85
2022/11/09 00:19:30;;;;;;;10.95;2.90;;;12.20;99.90;;;;;;4993520;28;20048;-85
2022/11/09 00:21:56;;;;;;;7.80;2.97;;;12.20;99.90;;;;;;5010030;28;20033;-85
2022/11/09 00:24:21;;;;;;;9.35;2.67;;;12.20;99.90;;;;;;4952494;28;20038;-85
2022/11/09 00:26:47;;;;;;;9.20;2.70;;;12.30;99.90;;;;;;4958394;28;20499;-85
2022/11/09 00:29:12;;;;;;;11.95;2.45;;;12.30;99.90;;;;;;4960922;28;20395;-85
2022/11/09 00:31:38;;;;;;;7.88;2.25;;;12.20;99.90;;;;;;4957986;28;20054;-85
2022/11/09 00:34:04;;;;;;;9.52;2.30;;;12.20;99.90;;;;;;4994697;28;20065;-85
2022/11/09 00:36:30;;;;;;;6.65;2.00;;;12.20;99.90;;;;;;4976616;28;20104;-85
2022/11/09 00:38:57;;;;;;;11.77;2.60;;;12.20;99.90;;;;;;4966926;28;20046;-85
2022/11/09 00:41:24;;;;;;;6.35;2.20;;;12.20;99.90;;;;;;4999568;28;20041;-85
2022/11/09 00:43:51;;;;;;;9.30;2.67;;;12.20;99.90;;;;;;4978993;28;20742;-85
2022/11/09 00:46:17;;;;;;;7.50;2.20;;;12.20;99.90;;;;;;4980322;28;20519;-85
2022/11/09 00:48:43;;;;;;;6.43;2.17;;;12.40;99.90;;;;;;4993714;28;20045;-85
2022/11/09 00:51:09;;;;;;;8.80;2.42;;;12.10;99.90;;;;;;4977353;28;20049;-85
2022/11/09 00:53:35;;;;;;;6.88;2.15;;;12.10;99.90;;;;;;5008914;28;20415;-85
2022/11/09 00:56:07;;;;;;;7.30;2.10;;;12.10;99.90;;;;;;4997817;28;20046;-85
2022/11/09 00:58:34;;;;;;;8.57;2.70;;;12.10;99.90;;;;;;4989393;28;20041;-85
2022/11/09 01:01:07;;;;;;;8.13;2.33;;;12.20;99.90;;;;;;5008923;28;20073;-85
2022/11/09 01:03:33;;;;;;;10.05;2.50;;;12.10;99.90;;;;;;4992083;28;20499;-85
2022/11/09 01:05:59;;;;;;;6.63;2.20;;;12.10;99.90;;;;;;4977381;28;20038;-85
2022/11/09 01:08:24;;;;;;;7.40;2.30;;;12.00;99.90;;;;;;4992339;28;20495;-85
2022/11/09 01:10:50;;;;;;;8.13;2.60;;;12.00;99.90;;;;;;4975679;28;20037;-86
2022/11/09 01:13:17;;;;;;;8.32;2.25;;;12.00;99.90;;;;;;4975254;28;20046;-85
2022/11/09 01:15:46;;;;;;;8.73;2.10;;;12.00;99.90;;;;;;4968839;28;20171;-85
2022/11/09 01:18:12;;;;;;;9.88;2.30;;;11.90;99.90;;;;;;4991688;28;20057;-85
2022/11/09 01:20:43;;;;;;;9.88;2.30;;;12.20;99.90;;;;;;4990059;28;20049;-85
2022/11/09 01:23:09;;;;;;;7.80;2.50;;;11.90;99.90;;;;;;4992488;28;20037;-85
2022/11/09 01:25:35;;;;;;;8.00;2.35;;;11.80;99.90;;;;;;5008819;28;20041;-85
2022/11/09 01:28:02;;;;;;;8.98;2.47;;;11.80;99.90;;;;;;4964498;28;20480;-85
2022/11/09 01:30:28;;;;;;;8.75;2.50;;;11.80;99.90;;;;;;4969100;28;20381;-85
2022/11/09 01:32:54;;;;;;;9.75;2.75;;;11.80;99.90;;;;;;4991304;28;20045;-85
2022/11/09 01:35:19;;;;;;;9.73;2.67;;;11.90;99.90;;;;;;4990851;28;20237;-85
2022/11/09 01:37:45;;;;;;;13.82;2.90;;;11.90;99.90;;;;;;4975954;28;20505;-85
2022/11/09 01:40:11;;;;;;;8.02;2.70;;;11.90;99.90;;;;;;4968996;28;20118;-86
2022/11/09 01:42:37;;;;;;;11.15;2.63;;;12.00;99.90;;;;;;4963382;28;20037;-86
2022/11/09 01:45:21;;;;;;;10.63;2.65;;;12.00;99.90;;;;;;4990790;28;20410;-85
2022/11/09 01:47:53;;;;;;;10.55;2.72;;;12.10;99.90;;;;;;4992710;28;20042;-85
2022/11/09 01:50:30;;;;;;;9.50;2.47;;;12.10;99.90;;;;;;4989465;28;20334;-85
2022/11/09 01:52:56;;;;;;;13.13;2.92;;;12.10;99.90;;;;;;4996301;28;20041;-85
2022/11/09 01:55:23;;;;;;;10.07;2.85;;;12.10;99.90;;;;;;4972785;28;20069;-84
2022/11/09 01:57:57;;;;;;;10.02;2.40;;;12.20;99.90;;;;;;4992437;28;20053;-85
2022/11/09 02:00:23;;;;;;;8.82;2.88;;;12.20;99.90;;;;;;4991303;28;20053;-85
2022/11/09 02:02:59;;;;;;;8.48;2.53;;;12.20;99.90;;;;;;4971916;28;20054;-85
2022/11/09 02:05:29;;;;;;;11.52;2.63;;;12.20;99.90;;;;;;5001189;28;20045;-86
2022/11/09 02:07:56;;;;;;;11.25;3.25;;;12.20;99.90;;;;;;4992303;28;20053;-85
2022/11/09 02:10:44;;;;;;;12.05;3.20;;;12.20;99.90;;;;;;4986695;28;20132;-84
2022/11/09 02:13:12;;;;;;;11.70;2.72;;;12.30;99.90;;;;;;4980596;28;20096;-86
2022/11/09 02:15:38;;;;;;;10.68;2.63;;;12.30;99.90;;;;;;4989555;28;20037;-85
2022/11/09 02:18:05;;;;;;;12.35;2.83;;;12.30;99.90;;;;;;4990558;28;20046;-85
2022/11/09 02:20:44;;;;;;;11.15;2.95;;;12.30;99.90;;;;;;4976253;28;20125;-85
2022/11/09 02:23:11;;;;;;;12.52;3.17;;;12.30;99.90;;;;;;4989650;28;20037;-85
2022/11/09 02:25:36;;;;;;;12.68;2.70;;;12.40;99.90;;;;;;4965768;28;20493;-85
2022/11/09 02:28:02;;;;;;;10.85;2.95;;;12.30;99.90;;;;;;4991274;28;20046;-85
2022/11/09 02:30:29;;;;;;;9.98;2.90;;;12.20;99.90;;;;;;4990747;28;20377;-85
2022/11/09 02:32:55;;;;;;;11.65;2.90;;;12.20;99.90;;;;;;4990758;28;20049;-85
2022/11/09 02:35:20;;;;;;;9.82;2.95;;;12.30;99.90;;;;;;5005733;28;20049;-85
2022/11/09 02:37:49;;;;;;;11.48;2.67;;;12.10;99.90;;;;;;4973016;28;20048;-85
2022/11/09 02:40:22;;;;;;;12.02;2.85;;;12.10;99.90;;;;;;5001851;28;20064;-85
2022/11/09 02:42:48;;;;;;;;;;;12.10;99.90;;;;;;5003453;28;20434;-85
2022/11/09 02:45:14;;;;;;;10.32;2.28;;;12.10;99.90;;;;;;4989097;28;19928;-85
2022/11/09 02:47:39;;;;;;;11.18;2.80;;;12.10;99.90;;;;;;4975611;28;20034;-85
2022/11/09 02:50:05;;;;;;;9.93;2.75;;;12.10;99.90;;;;;;4975283;28;20116;-85
2022/11/09 02:52:31;;;;;;;13.02;3.08;;;12.10;99.90;;;;;;4965473;28;20034;-85
2022/11/09 02:54:57;;;;;;;10.73;2.80;;;12.10;99.90;;;;;;4990648;28;20401;-85
2022/11/09 02:57:22;;;;;;;9.27;2.90;;;12.00;99.90;;;;;;5003807;28;20068;-85
2022/11/09 02:59:48;;;;;;;8.50;2.63;;;12.00;99.90;;;;;;4972712;28;20048;-85
2022/11/09 03:02:14;;;;;;;9.50;2.72;;;12.00;99.90;;;;;;4985288;28;20053;-85
2022/11/09 03:04:39;;;;;;;8.65;2.30;;;12.00;99.90;;;;;;4964575;28;20042;-85
2022/11/09 03:07:06;;;;;;;11.00;2.67;;;12.00;99.90;;;;;;4979691;28;20044;-85
2022/11/09 03:09:32;;;;;;;10.98;3.00;;;12.00;99.90;;;;;;4990932;28;20100;-85
2022/11/09 03:11:58;;;;;;;11.57;2.53;;;12.00;99.90;;;;;;4986994;28;20113;-85
2022/11/09 03:14:23;;;;;;;10.02;2.83;;;12.00;99.90;;;;;;4986853;28;20041;-85
2022/11/09 03:16:49;;;;;;;9.50;2.72;;;12.10;99.90;;;;;;4989674;28;20034;-85
2022/11/09 03:19:15;;;;;;;9.20;2.50;;;12.00;99.90;;;;;;5001407;28;20584;-85
2022/11/09 03:21:40;;;;;;;9.32;2.65;;;12.00;99.90;;;;;;4990518;28;20038;-85
2022/11/09 03:24:06;;;;;;;13.65;2.63;;;12.20;99.90;;;;;;4968122;28;20046;-85
2022/11/09 03:26:32;;;;;;;12.43;2.70;;;12.00;99.90;;;;;;4994236;28;20038;-85
2022/11/09 03:28:58;;;;;;;10.55;2.60;;;12.00;99.90;;;;;;4978907;28;20066;-85
2022/11/09 03:31:23;;;;;;;7.20;2.00;;;11.90;99.90;;;;;;4963063;28;20494;-85
2022/11/09 03:33:49;;;;;;;10.70;2.70;;;12.00;99.90;;;;;;4975686;28;20042;-85
2022/11/09 03:36:15;;;;;;;9.52;2.58;;;11.90;99.90;;;;;;4970740;28;20049;-85
2022/11/09 03:38:40;;;;;;;12.32;2.60;;;12.00;99.90;;;;;;4992256;28;20041;-85
2022/11/09 03:41:06;;;;;;;8.63;2.35;;;12.00;99.90;;;;;;4977866;28;20037;-85
2022/11/09 03:43:32;;;;;;;10.98;2.50;;;11.90;99.90;;;;;;4992583;28;20539;-85
2022/11/09 03:45:57;;;;;;;10.32;2.33;;;12.00;99.90;;;;;;4974880;28;20038;-85
2022/11/09 03:48:23;;;;;;;10.18;2.42;;;12.00;99.90;;;;;;4996684;28;20046;-85
2022/11/09 03:50:49;;;;;;;13.05;2.90;;;12.00;99.90;;;;;;5012815;28;20053;-85
2022/11/09 03:53:15;;;;;;;11.35;2.72;;;11.90;99.90;;;;;;4976639;28;20872;-85
2022/11/09 03:55:41;;;;;;;12.73;2.85;;;11.90;99.90;;;;;;4988631;28;20035;-85
2022/11/09 03:58:08;;;;;;;10.07;2.53;;;11.90;99.90;;;;;;5011408;28;20045;-85
2022/11/09 04:00:35;;;;;;;9.70;2.75;;;11.90;99.90;;;;;;4994007;28;20180;-85
2022/11/09 04:03:00;;;;;;;15.52;2.75;;;11.90;99.90;;;;;;4977397;28;20537;-85
2022/11/09 04:05:26;;;;;;;12.90;2.63;;;11.90;99.90;;;;;;4964582;28;20047;-85
2022/11/09 04:07:54;;;;;;;10.32;2.55;;;11.90;99.90;;;;;;4993281;28;20097;-85
2022/11/09 04:10:21;;;;;;;12.93;2.70;;;11.90;99.90;;;;;;4989981;28;20707;-86
2022/11/09 04:12:46;;;;;;;8.00;2.47;;;12.20;99.90;;;;;;4962112;28;20046;-85
2022/11/09 04:15:13;;;;;;;9.63;2.42;;;11.90;99.90;;;;;;4995939;28;20052;-85
2022/11/09 04:17:38;;;;;;;12.73;2.80;;;11.90;99.90;;;;;;4995774;28;20407;-85
2022/11/09 04:20:07;;;;;;;14.52;2.70;;;11.90;99.90;;;;;;4993886;28;20038;-85
2022/11/09 04:22:32;;;;;;;10.75;2.47;;;11.90;99.90;;;;;;4989005;28;20509;-85
2022/11/09 04:24:58;;;;;;;10.35;2.53;;;11.80;99.90;;;;;;4981898;28;20053;-85
2022/11/09 04:27:24;;;;;;;11.43;2.78;;;11.80;99.90;;;;;;5008608;28;20340;-85
2022/11/09 04:29:50;;;;;;;11.18;2.50;;;11.80;99.90;;;;;;4994421;28;20439;-85
2022/11/09 04:32:15;;;;;;;10.27;2.38;;;11.80;99.90;;;;;;4992648;28;20562;-84
2022/11/09 04:34:41;;;;;;;10.15;2.20;;;11.80;99.90;;;;;;4976280;28;20775;-85
2022/11/09 04:37:07;;;;;;;13.30;2.85;;;11.80;99.90;;;;;;4998688;28;20057;-85
2022/11/09 04:39:33;;;;;;;11.07;2.40;;;11.70;99.90;;;;;;4993613;28;20096;-85
2022/11/09 04:41:59;;;;;;;15.13;2.95;;;11.70;99.90;;;;;;4992202;28;20038;-85
2022/11/09 04:44:24;;;;;;;10.48;2.92;;;11.80;99.90;;;;;;4994322;28;20050;-85
2022/11/09 04:46:50;;;;;;;11.00;2.67;;;11.70;99.90;;;;;;4981277;28;20450;-85
2022/11/09 04:49:16;;;;;;;10.32;2.47;;;11.70;99.90;;;;;;4977263;28;20483;-85
2022/11/09 04:51:41;;;;;;;11.40;2.70;;;11.70;99.90;;;;;;4990266;28;20399;-85
2022/11/09 04:54:07;;;;;;;8.85;2.42;;;11.70;99.90;;;;;;4975596;28;20117;-85
2022/11/09 04:56:33;;;;;;;10.10;2.50;;;11.80;99.90;;;;;;4977415;28;20288;-85
2022/11/09 04:58:58;;;;;;;11.70;2.90;;;11.90;99.90;;;;;;4992978;28;20046;-85
2022/11/09 05:01:24;;;;;;;12.05;2.50;;;11.80;99.90;;;;;;4961088;28;20054;-85
2022/11/09 05:03:50;;;;;;;13.35;2.85;;;11.80;99.90;;;;;;4974878;28;21658;-85
2022/11/09 05:06:30;;;;;;;9.48;2.60;;;11.80;99.90;;;;;;4979422;28;20092;-85
2022/11/09 05:08:57;;;;;;;12.32;2.63;;;11.80;99.90;;;;;;4980716;28;20042;-85
2022/11/09 05:11:23;;;;;;;12.35;2.47;;;11.90;99.90;;;;;;4971394;28;20129;-85
2022/11/09 05:13:50;;;;;;;8.00;2.20;;;11.90;99.90;;;;;;4987788;28;20096;-85
2022/11/09 05:16:16;;;;;;;10.70;2.45;;;12.50;99.90;;;;;;4991009;28;20049;-85
2022/11/09 05:18:43;;;;;;;12.25;2.67;;;11.90;99.90;;;;;;5008300;28;20076;-85
2022/11/09 05:21:08;;;;;;;10.13;3.00;;;11.90;99.90;;;;;;4975821;28;20092;-85
2022/11/09 05:26:18;;;;;;;12.38;2.72;;;11.90;99.90;;;;;;4993485;28;20582;-85
2022/11/09 05:28:44;;;;;;;12.63;2.83;;;11.80;99.90;;;;;;5007684;28;20045;-84
2022/11/09 05:31:10;;;;;;;11.73;2.40;;;11.80;99.90;;;;;;4975462;28;20264;-85
2022/11/09 05:33:35;;;;;;;10.57;2.60;;;11.80;99.90;;;;;;5009174;28;20038;-85
2022/11/09 05:36:02;;;;;;;10.55;2.30;;;11.90;99.90;;;;;;4961407;28;20046;-85
2022/11/09 05:38:28;;;;;;;11.98;2.90;;;11.90;99.90;;;;;;4974073;28;20042;-85
2022/11/09 05:40:54;;;;;;;12.75;2.90;;;11.90;99.90;;;;;;4973936;28;20033;-85
2022/11/09 05:43:20;;;;;;;10.90;2.83;;;11.90;99.90;;;;;;4991789;28;20044;-85
2022/11/09 05:45:46;;;;;;;10.27;2.78;;;11.90;99.90;;;;;;4971130;28;20049;-85
2022/11/09 05:48:14;;;;;;;10.20;2.60;;;11.90;99.90;;;;;;4992699;28;20053;-85
2022/11/09 05:50:41;;;;;;;10.55;2.50;;;11.90;99.90;;;;;;4989809;28;20042;-85
2022/11/09 05:53:07;;;;;;;12.90;2.42;;;10.90;99.90;;;;;;4975689;28;20049;-85
2022/11/09 05:55:33;;;;;;;10.38;2.40;;;11.90;99.90;;;;;;4981215;28;20095;-85
2022/11/09 05:58:00;;;;;;;10.95;2.80;;;11.00;99.90;;;;;;4972087;28;20125;-85
2022/11/09 06:00:26;;;;;;;9.23;2.63;;;11.90;99.90;;;;;;5004597;28;20510;-86
2022/11/09 06:02:51;;;;;;;12.55;2.95;;;11.90;99.90;;;;;;4988493;28;20056;-85
2022/11/09 06:05:19;;;;;;;9.30;2.58;;;11.90;99.90;;;;;;4970299;28;20038;-85
2022/11/09 06:07:45;;;;;;;11.55;2.75;;;11.90;99.90;;;;;;4998064;28;20402;-85
2022/11/09 06:10:11;;;;;;;11.75;2.70;;;11.90;99.90;;;;;;4973169;28;20452;-85
2022/11/09 06:12:37;;;;;;;10.68;2.88;;;11.80;99.90;;;;;;4986098;28;20046;-86
2022/11/09 06:15:04;;;;;;;10.70;2.40;;;11.90;99.90;;;;;;4969349;28;20030;-85
2022/11/09 06:17:30;;;;;;;14.15;2.63;;;11.90;99.90;;;;;;4984022;28;20045;-85
2022/11/09 06:19:55;;;;;;;11.07;2.60;;;11.90;99.90;;;;;;4996950;28;20050;-86
2022/11/09 06:22:21;;;;;;;12.48;3.05;;;11.80;99.90;;;;;;5006289;28;20041;-85
2022/11/09 06:24:47;;;;;;;10.43;2.88;;;11.80;99.90;;;;;;5004315;28;20041;-85
2022/11/09 06:27:13;;;;;;;10.88;2.70;;;11.80;99.90;;;;;;4991292;28;20125;-85
2022/11/09 06:29:39;;;;;;;10.20;2.33;;;11.80;99.90;;;;;;4956715;28;20069;-85
2022/11/09 06:32:05;;;;;;;14.55;2.90;;;11.80;99.90;;;;;;4990515;28;20080;-85
2022/11/09 06:34:30;;;;;;;11.20;2.60;;;11.70;99.90;;;;;;4972751;28;20045;-85
2022/11/09 06:36:56;;;;;;;9.30;2.47;;;11.70;99.90;;;;;;4969201;28;20042;-84
2022/11/09 06:39:22;;;;;;;8.85;2.40;;;11.70;99.90;;;;;;4980133;28;20237;-86
2022/11/09 06:41:48;;;;;;;12.43;2.85;;;11.70;99.90;;;;;;4971359;28;20046;-86
2022/11/09 06:44:14;;;;;;;9.65;2.50;;;11.70;99.90;;;;;;4999345;28;20030;-86
2022/11/09 06:46:40;;;;;;;11.27;2.40;;;11.70;99.90;;;;;;4990355;28;20603;-86
2022/11/09 06:49:06;;;;;;;12.55;2.60;;;11.70;99.90;;;;;;4989912;28;20034;-86
2022/11/09 06:51:31;;;;;;;11.90;2.70;;;11.70;99.90;;;;;;4974555;28;20042;-86
2022/11/09 06:53:57;;;;;;;15.48;3.13;;;11.70;99.90;;;;;;4968368;28;20037;-86
2022/11/09 06:56:23;;;;;;;11.40;2.78;;;11.70;99.90;;;;;;4988078;28;20233;-85
2022/11/09 06:58:48;;;;;;;11.77;2.80;;;11.70;99.90;;;;;;4981573;28;20125;-84
2022/11/09 07:01:17;;;;;;;12.77;3.00;;;11.70;99.90;;;;;;4973229;28;20046;-86
2022/11/09 07:03:42;;;;;;;12.32;2.90;;;11.80;99.90;;;;;;4990852;28;20082;-86
2022/11/09 07:06:10;;;;;;;9.02;2.35;;;11.70;99.90;;;;;;5006388;28;20117;-86
2022/11/09 07:08:37;;;;;;;9.50;2.42;;;11.60;99.90;;;;;;4977204;28;20053;-86
2022/11/09 07:11:11;;;;;;;11.02;2.42;;;11.70;99.90;;;;;;4993576;28;20490;-86
2022/11/09 07:13:40;;;;;;;9.93;2.42;;;11.70;99.90;;;;;;4992250;28;20043;-87
2022/11/09 07:16:07;;;;;;;9.18;2.40;;;11.70;99.90;;;;;;4979598;28;20053;-86
2022/11/09 07:18:33;;;;;;;11.35;2.45;;;12.30;99.90;;;;;;4993986;28;20052;-85
2022/11/09 07:20:59;;;;;;;11.60;2.60;;;11.70;99.90;;;;;;4992942;28;20038;-85
2022/11/09 07:23:24;;;;;;;12.40;2.55;;;11.70;99.90;;;;;;4995526;28;20549;-85
2022/11/09 07:25:51;;;;;;;11.23;2.47;;;11.70;99.90;;;;;;5011818;28;20125;-84
2022/11/09 07:28:17;;;;;;;10.00;2.88;;;11.70;99.90;;;;;;4976571;28;20050;-84
2022/11/09 07:30:42;;;;;;;10.18;2.53;;;11.70;99.90;;;;;;4976681;28;20044;-85
2022/11/09 07:33:21;;;;;;;9.73;2.33;;;11.70;99.90;;;;;;4981388;28;20053;-85
2022/11/09 07:35:46;;;;;;;12.60;2.38;;;11.70;99.90;;;;;;5004609;28;20112;-86
2022/11/09 07:38:14;;;;;;;14.07;2.50;;;11.80;99.90;;;;;;5009590;28;20046;-86
2022/11/09 07:40:40;;;;;;;12.57;2.85;;;11.80;99.90;;;;;;4979114;28;20357;-86
2022/11/09 07:43:06;;;;;;;11.68;2.47;;;11.80;99.90;;;;;;4993948;28;20042;-85
2022/11/09 07:45:33;;;;;;;12.40;2.63;;;11.80;99.90;;;;;;4979134;28;20439;-85
2022/11/09 07:48:02;;;;;;;12.00;2.90;;;11.90;99.90;;;;;;5009036;28;20129;-85
2022/11/09 07:50:29;;;;;;;10.25;2.20;;;11.90;99.90;;;;;;4987451;28;20406;-85
2022/11/09 07:52:56;;;;;;;11.05;2.50;;;11.90;99.90;;;;;;4974225;28;20053;-85
2022/11/09 07:55:22;;;;;;;12.88;2.65;;;11.90;99.90;;;;;;5008095;28;20430;-87
2022/11/09 07:57:47;;;;;;;12.85;2.75;;;11.90;99.90;;;;;;4991451;28;20039;-86
2022/11/09 08:00:14;;;;;;;13.13;2.72;;;12.00;99.90;;;;;;4990694;28;20034;-87
2022/11/09 08:02:40;;;;;;;10.32;2.58;;;12.00;99.90;;;;;;5010036;28;20062;-87
2022/11/09 08:05:06;;;;;;;13.73;2.95;;;12.00;99.90;;;;;;4976142;28;20045;-86
2022/11/09 08:07:33;;;;;;;13.52;2.50;;;12.00;99.90;;;;;;4995417;28;20041;-86
2022/11/09 08:09:59;;;;;;;12.75;2.70;;;12.00;99.90;;;;;;4986296;28;20041;-86
2022/11/09 08:12:24;;;;;;;11.85;2.40;;;12.00;99.90;;;;;;4991852;28;20043;-85
2022/11/09 08:14:50;;;;;;;11.90;2.33;;;12.10;99.90;;;;;;4978671;28;20041;-86
2022/11/09 08:17:15;;;;;;;11.57;2.40;;;12.10;99.90;;;;;;4976526;28;20061;-86
2022/11/09 08:19:44;;;;;;;12.43;2.72;;;12.20;99.90;;;;;;4985648;28;20049;-88
2022/11/09 08:22:09;;;;;;;12.52;2.58;;;12.20;99.90;;;;;;4992175;28;20034;-86
2022/11/09 08:24:35;;;;;;;11.80;2.80;;;12.20;99.90;;;;;;4970649;28;20042;-87
2022/11/09 08:27:01;;;;;;;14.65;3.00;;;12.30;99.90;;;;;;4974952;28;20066;-87
2022/11/09 08:29:26;;;;;;;10.90;2.53;;;12.40;99.90;;;;;;4983472;28;20173;-87
2022/11/09 08:31:52;;;;;;;11.23;2.58;;;12.40;99.90;;;;;;4958898;28;20038;-88
2022/11/09 08:34:18;;;;;;;10.82;2.42;;;12.40;99.90;;;;;;4959877;28;20045;-87
2022/11/09 08:36:43;;;;;;;13.13;2.72;;;12.50;99.90;;;;;;4994630;28;20100;-86
2022/11/09 08:39:09;;;;;;;11.35;2.58;;;12.60;99.90;;;;;;4974619;28;20576;-86
2022/11/09 08:41:35;;;;;;;17.02;2.92;;;12.50;99.90;;;;;;4975781;28;20029;-87
2022/11/09 08:44:01;;;;;;;10.82;2.28;;;13.60;99.90;;;;;;4990544;28;20630;-86
2022/11/09 08:46:27;;;;;;;13.05;2.42;;;12.60;99.90;;;;;;4989735;28;20110;-85
2022/11/09 08:48:53;;;;;;;13.43;2.90;;;12.60;99.90;;;;;;5009132;28;20049;-85
2022/11/09 08:51:18;;;;;;;14.23;2.80;;;12.70;99.90;;;;;;4994108;28;20495;-86
2022/11/09 08:53:44;;;;;;;10.57;2.40;;;12.70;99.90;;;;;;4977004;28;20077;-85
2022/11/09 08:56:11;;;;;;;11.38;2.58;;;12.70;99.90;;;;;;4992050;28;20103;-87
2022/11/09 08:58:38;;;;;;;12.27;2.85;;;12.70;99.90;;;;;;4974479;28;20507;-86
2022/11/09 09:01:10;;;;;;;13.10;2.75;;;12.80;99.90;;;;;;5010244;28;20048;-86
2022/11/09 09:03:36;;;;;;;13.07;2.80;;;12.80;99.90;;;;;;4974682;28;20058;-87
2022/11/09 09:06:04;;;;;;;12.45;2.90;;;12.90;99.90;;;;;;4970510;28;20495;-87
2022/11/09 09:08:30;;;;;;;12.10;3.20;;;12.90;99.90;;;;;;4985493;28;20069;-86
2022/11/09 09:10:56;;;;;;;10.52;2.60;;;12.90;99.90;;;;;;4989844;28;20088;-86
2022/11/09 09:13:21;;;;;;;13.30;2.63;;;12.90;99.90;;;;;;4984925;28;20078;-87
2022/11/09 09:15:48;;;;;;;10.80;2.72;;;13.00;99.90;;;;;;5012641;28;20050;-86
2022/11/09 09:18:14;;;;;;;11.50;2.88;;;13.00;99.90;;;;;;4982754;28;20058;-86
2022/11/09 09:20:40;;;;;;;12.10;2.95;;;13.20;99.90;;;;;;4969015;28;20036;-87
2022/11/09 09:23:05;;;;;;;11.52;2.95;;;13.00;99.90;;;;;;4985189;28;20117;-88
2022/11/09 09:25:31;;;;;;;11.15;2.58;;;13.10;99.90;;;;;;4981979;28;20145;-85
2022/11/09 09:27:57;;;;;;;12.00;2.60;;;13.10;99.90;;;;;;5002843;28;20101;-84
2022/11/09 09:30:23;;;;;;;15.32;3.33;;;13.10;99.90;;;;;;4968258;28;20410;-86
2022/11/09 09:32:48;;;;;;;12.65;2.65;;;13.20;99.90;;;;;;4982895;28;20502;-85
2022/11/09 09:35:14;;;;;;;14.90;3.33;;;13.20;99.90;;;;;;4981553;28;20069;-85
2022/11/09 09:37:41;;;;;;;10.75;2.78;;;13.20;99.90;;;;;;5005824;28;20042;-84
2022/11/09 09:40:18;;;;;;;15.15;3.00;;;13.20;99.90;;;;;;4991991;28;20433;-89
2022/11/09 09:42:44;;;;;;;14.00;3.05;;;13.20;99.90;;;;;;4988059;28;20078;-87
2022/11/09 09:45:19;;;;;;;12.90;3.10;;;13.30;99.90;;;;;;4973804;28;20046;-88
2022/11/09 09:48:12;;;;;;;12.27;3.08;;;13.30;99.90;;;;;;4985831;28;20081;-85
2022/11/09 09:50:46;;;;;;;;;;;13.40;99.90;;;;;;4988684;28;20382;-84
2022/11/09 09:53:21;;;;;;;13.73;3.10;;;13.40;99.90;;;;;;5005264;28;19917;-86
2022/11/09 09:55:55;;;;;;;12.38;3.00;;;13.50;99.90;;;;;;4992058;28;20471;-86
2022/11/09 09:58:30;;;;;;;13.32;2.85;;;13.60;99.90;;;;;;5006747;28;20034;-86
2022/11/09 10:01:14;;;;;;;10.65;2.78;;;13.60;99.90;;;;;;4992947;28;20041;-85
2022/11/09 10:03:40;;;;;;;16.75;3.20;;;13.70;99.90;;;;;;4980876;28;20042;-87
2022/11/09 10:06:41;;;;;;;13.65;2.90;;;13.70;99.90;;;;;;4991624;28;20487;-88
2022/11/09 10:09:34;;;;;;;10.75;2.78;;;13.70;99.90;;;;;;4986566;28;20044;-85
2022/11/09 10:12:15;;;;;;;13.50;2.72;;;13.70;99.90;;;;;;5012891;28;20099;-86
2022/11/09 10:14:44;;;;;;;10.93;2.83;;;13.80;99.90;;;;;;5014052;28;20046;-87
2022/11/09 10:17:29;;;;;;;13.90;2.80;;;13.80;99.90;;;;;;4990660;28;20042;-87
2022/11/09 10:20:22;;;;;;;10.32;2.95;;;13.90;99.90;;;;;;4996145;28;20120;-88
2022/11/09 10:23:10;;;;;;;12.65;2.85;;;13.90;99.90;;;;;;4997151;28;20046;-87
2022/11/09 10:25:42;;;;;;;12.88;2.90;;;13.90;99.90;;;;;;5005705;28;20069;-87
2022/11/09 10:28:14;;;;;;;10.98;2.90;;;14.00;99.90;;;;;;4990040;28;20177;-85
2022/11/09 10:30:40;;;;;;;12.30;3.28;;;14.10;99.90;;;;;;5008035;28;20569;-86
2022/11/09 10:33:08;;;;;;;14.02;3.00;;;14.10;99.90;;;;;;4988570;28;20037;-86
2022/11/09 10:35:40;;;;;;;11.52;2.90;;;14.10;99.90;;;;;;4988694;28;20121;-87
2022/11/09 10:38:19;;;;;;;15.35;3.72;;;14.10;99.90;;;;;;4988264;28;20053;-87
2022/11/09 10:40:53;;;;;;;11.63;3.13;;;14.00;99.90;;;;;;4981338;28;20104;-87
2022/11/09 10:43:19;;;;;;;10.98;3.05;;;13.80;99.90;;;;;;4991221;28;20384;-89
2022/11/09 10:45:56;;;;;;;12.35;2.97;;;13.80;99.90;;;;;;4975189;28;20041;-86
2022/11/09 10:48:31;;;;;;;11.00;3.00;;;13.70;99.90;;;;;;4979334;28;20547;-86
2022/11/09 10:50:57;;;;;;;12.35;3.40;;;13.80;99.90;;;;;;4990518;28;20351;-87
2022/11/09 10:53:28;;;;;;;10.95;3.00;;;13.80;99.90;;;;;;4972838;28;20042;-85
2022/11/09 10:56:17;;;;;;;11.43;3.00;;;13.90;99.90;;;;;;4985870;28;20446;-85
2022/11/09 10:58:50;;;;;;;12.05;3.38;;;13.90;99.90;;;;;;4989642;28;20045;-87
2022/11/09 11:01:21;;;;;;;15.38;3.25;;;14.00;99.90;;;;;;4991939;28;20045;-87
2022/11/09 11:03:52;;;;;;;13.88;3.35;;;14.00;99.90;;;;;;4989374;28;20052;-86
2022/11/09 11:06:21;;;;;;;11.38;2.97;;;14.00;99.90;;;;;;4986980;28;20121;-87
2022/11/09 11:09:05;;;;;;;15.00;3.83;;;13.90;99.90;;;;;;4980738;28;20049;-87
2022/11/09 11:11:32;;;;;;;13.10;3.42;;;13.90;99.90;;;;;;4990525;28;20069;-86
2022/11/09 11:14:22;;;;;;;13.60;3.15;;;13.80;99.90;;;;;;4989630;28;20401;-87
2022/11/09 11:16:49;;;;;;;14.55;3.03;;;13.90;99.90;;;;;;4990922;28;20128;-86
2022/11/09 11:19:25;;;;;;;13.32;3.30;;;13.80;99.90;;;;;;4992143;28;20113;-86
2022/11/09 11:22:09;;;;;;;10.43;2.80;;;13.80;99.90;;;;;;5008198;28;20499;-87
2022/11/09 11:25:10;;;;;;;14.90;3.55;;;13.80;99.90;;;;;;4991167;28;20037;-86
2022/11/09 11:28:13;;;;;;;11.27;2.90;;;13.70;99.90;;;;;;4986874;28;20038;-86
2022/11/09 11:30:39;;;;;;;9.52;2.58;;;13.80;99.90;;;;;;4973078;28;20046;-87
2022/11/09 11:33:14;;;;;;;11.27;2.80;;;13.80;99.90;;;;;;4986659;28;20048;-86
2022/11/09 11:35:54;;;;;;;11.90;2.95;;;13.80;99.90;;;;;;5002752;28;20030;-86
2022/11/09 11:38:24;;;;;;;13.18;3.00;;;13.80;99.90;;;;;;4990332;28;20054;-86
2022/11/09 11:41:11;;;;;;;12.63;3.25;;;13.80;99.90;;;;;;4985585;28;20045;-86
2022/11/09 11:43:55;;;;;;;11.52;2.70;;;13.80;99.90;;;;;;4988714;28;20074;-86
2022/11/09 11:46:36;;;;;;;11.48;2.83;;;13.80;99.90;;;;;;4986925;28;20092;-86
2022/11/09 11:49:29;;;;;;;11.05;2.95;;;13.80;99.90;;;;;;5008944;28;20069;-86
2022/11/09 11:52:10;;;;;;;9.50;2.90;;;13.90;99.90;;;;;;4992360;28;20045;-86
2022/11/09 11:55:03;;;;;;;11.70;3.00;;;14.00;99.90;;;;;;4992752;28;20719;-87
2022/11/09 11:57:50;;;;;;;11.85;2.80;;;14.00;99.90;;;;;;5005297;28;20502;-88
2022/11/09 12:00:19;;;;;;;10.95;2.92;;;14.00;99.90;;;;;;4990663;28;20043;-88
2022/11/09 12:03:24;;;;;;;13.63;3.08;;;13.90;99.90;;;;;;4990886;28;20057;-86
2022/11/09 12:06:05;;;;;;;11.85;2.80;;;13.90;99.90;;;;;;4993770;28;20162;-86
2022/11/09 12:08:31;;;;;;;12.57;2.85;;;14.00;99.90;;;;;;4994279;28;20053;-85
2022/11/09 12:11:21;;;;;;;15.23;3.38;;;14.10;99.90;;;;;;5009897;28;20041;-85
2022/11/09 12:14:24;;;;;;;10.55;3.28;;;14.10;99.90;;;;;;4990087;28;20042;-85
2022/11/09 12:17:24;;;;;;;13.15;3.00;;;14.00;99.90;;;;;;4993467;28;20566;-85
2022/11/09 12:20:04;;;;;;;12.10;2.80;;;13.90;99.90;;;;;;4989319;28;20104;-86
2022/11/09 12:22:33;;;;;;;10.43;3.00;;;13.80;99.90;;;;;;4992888;28;20046;-87
2022/11/09 12:25:12;;;;;;;12.88;3.30;;;13.70;99.90;;;;;;5009235;28;20113;-86
2022/11/09 12:28:22;;;;;;;11.30;3.20;;;13.70;99.90;;;;;;4994045;28;20116;-86
2022/11/09 12:31:11;;;;;;;13.07;2.80;;;13.70;99.90;;;;;;4985614;28;20057;-86
2022/11/09 12:33:47;;;;;;;10.90;3.05;;;13.70;99.90;;;;;;5004761;28;20041;-87
2022/11/09 12:36:19;;;;;;;11.75;3.13;;;13.70;99.90;;;;;;4994020;28;20041;-86
2022/11/09 12:39:13;;;;;;;11.60;3.10;;;13.70;99.90;;;;;;4985016;28;20525;-87
2022/11/09 12:41:40;;;;;;;12.52;3.22;;;13.70;99.90;;;;;;4988774;28;20048;-85
2022/11/09 12:44:12;;;;;;;11.43;3.00;;;13.70;99.90;;;;;;4962886;28;20100;-85
2022/11/09 12:46:51;;;;;;;11.20;2.80;;;13.80;99.90;;;;;;4988366;28;20034;-86
2022/11/09 12:49:36;;;;;;;10.70;2.97;;;13.80;99.90;;;;;;4987727;28;20038;-87
2022/11/09 12:52:06;;;;;;;13.63;2.90;;;13.90;99.90;;;;;;4999599;28;20038;-85
2022/11/09 12:54:32;;;;;;;11.75;2.80;;;13.90;99.90;;;;;;4996352;28;20045;-85